sensor_id;sensor_type;location;lat;lon;timestamp;P1;durP1;ratioP1;P2;durP2;ratioP2
12908;SDS011;6522;49.622;6.126;2024-02-04T00:01:40;5.47;;;4.87;;
12908;SDS011;6522;49.622;6.126;2024-02-04T00:04:26;5.82;;;5.25;;
12908;SDS011;6522;49.622;6.126;2024-02-04T00:07:13;5.12;;;4.10;;
12908;SDS011;6522;49.622;6.126;2024-02-04T00:10:00;10.20;;;4.85;;
12908;SDS011;6522;49.622;6.126;2024-02-04T00:12:47;6.03;;;5.10;;
12908;SDS011;6522;49.622;6.126;2024-02-04T00:15:33;5.12;;;4.70;;
12908;SDS011;6522;49.622;6.126;2024-02-04T00:18:20;4.32;;;3.85;;
12908;SDS011;6522;49.622;6.126;2024-02-04T00:21:07;4.95;;;4.55;;
12908;SDS011;6522;49.622;6.126;2024-02-04T00:23:53;5.35;;;4.85;;
12908;SDS011;6522;49.622;6.126;2024-02-04T00:26:40;6.30;;;4.87;;
12908;SDS011;6522;49.622;6.126;2024-02-04T00:29:27;5.20;;;4.03;;
12908;SDS011;6522;49.622;6.126;2024-02-04T00:32:14;4.75;;;4.25;;
12908;SDS011;6522;49.622;6.126;2024-02-04T00:35:00;5.03;;;4.53;;
12908;SDS011;6522;49.622;6.126;2024-02-04T00:37:47;7.90;;;4.12;;
12908;SDS011;6522;49.622;6.126;2024-02-04T00:40:34;4.22;;;3.80;;
12908;SDS011;6522;49.622;6.126;2024-02-04T00:43:21;4.78;;;4.32;;
12908;SDS011;6522;49.622;6.126;2024-02-04T00:46:08;4.53;;;4.18;;
12908;SDS011;6522;49.622;6.126;2024-02-04T00:48:54;4.90;;;4.35;;
12908;SDS011;6522;49.622;6.126;2024-02-04T00:51:41;5.67;;;3.50;;
12908;SDS011;6522;49.622;6.126;2024-02-04T00:54:28;4.57;;;4.18;;
12908;SDS011;6522;49.622;6.126;2024-02-04T00:57:15;4.85;;;4.45;;
12908;SDS011;6522;49.622;6.126;2024-02-04T01:00:02;5.00;;;4.47;;
12908;SDS011;6522;49.622;6.126;2024-02-04T01:02:48;5.65;;;3.95;;
12908;SDS011;6522;49.622;6.126;2024-02-04T01:05:35;3.62;;;3.33;;
12908;SDS011;6522;49.622;6.126;2024-02-04T01:08:22;4.20;;;3.75;;
12908;SDS011;6522;49.622;6.126;2024-02-04T01:11:08;3.97;;;2.95;;
12908;SDS011;6522;49.622;6.126;2024-02-04T01:13:55;3.80;;;3.40;;
12908;SDS011;6522;49.622;6.126;2024-02-04T01:16:42;3.40;;;2.90;;
12908;SDS011;6522;49.622;6.126;2024-02-04T01:19:29;4.00;;;3.70;;
12908;SDS011;6522;49.622;6.126;2024-02-04T01:22:16;4.30;;;3.90;;
12908;SDS011;6522;49.622;6.126;2024-02-04T01:25:02;4.53;;;4.20;;
12908;SDS011;6522;49.622;6.126;2024-02-04T01:27:49;4.47;;;3.60;;
12908;SDS011;6522;49.622;6.126;2024-02-04T01:30:36;5.00;;;3.45;;
12908;SDS011;6522;49.622;6.126;2024-02-04T01:33:23;3.65;;;3.30;;
12908;SDS011;6522;49.622;6.126;2024-02-04T01:36:10;3.50;;;3.20;;
12908;SDS011;6522;49.622;6.126;2024-02-04T01:38:57;3.42;;;2.80;;
12908;SDS011;6522;49.622;6.126;2024-02-04T01:41:44;3.67;;;3.30;;
12908;SDS011;6522;49.622;6.126;2024-02-04T01:44:30;3.55;;;3.25;;
12908;SDS011;6522;49.622;6.126;2024-02-04T01:47:17;3.20;;;2.78;;
12908;SDS011;6522;49.622;6.126;2024-02-04T01:50:04;3.35;;;3.05;;
12908;SDS011;6522;49.622;6.126;2024-02-04T01:52:51;3.70;;;3.40;;
12908;SDS011;6522;49.622;6.126;2024-02-04T01:55:38;3.40;;;2.90;;
12908;SDS011;6522;49.622;6.126;2024-02-04T01:58:25;3.25;;;2.97;;
12908;SDS011;6522;49.622;6.126;2024-02-04T02:01:12;4.18;;;3.22;;
12908;SDS011;6522;49.622;6.126;2024-02-04T02:03:58;4.57;;;2.90;;
12908;SDS011;6522;49.622;6.126;2024-02-04T02:06:45;3.10;;;2.80;;
12908;SDS011;6522;49.622;6.126;2024-02-04T02:09:32;3.97;;;3.58;;
12908;SDS011;6522;49.622;6.126;2024-02-04T02:12:39;4.32;;;3.20;;
12908;SDS011;6522;49.622;6.126;2024-02-04T02:15:21;4.20;;;3.03;;
12908;SDS011;6522;49.622;6.126;2024-02-04T02:18:10;2.92;;;2.62;;
12908;SDS011;6522;49.622;6.126;2024-02-04T02:26:53;3.72;;;3.42;;
12908;SDS011;6522;49.622;6.126;2024-02-04T02:29:40;4.03;;;3.60;;
12908;SDS011;6522;49.622;6.126;2024-02-04T02:32:26;2.90;;;2.30;;
12908;SDS011;6522;49.622;6.126;2024-02-04T02:35:14;4.45;;;3.15;;
12908;SDS011;6522;49.622;6.126;2024-02-04T02:41:06;2.70;;;2.30;;
12908;SDS011;6522;49.622;6.126;2024-02-04T02:43:52;3.05;;;2.85;;
12908;SDS011;6522;49.622;6.126;2024-02-04T02:46:39;3.00;;;2.80;;
12908;SDS011;6522;49.622;6.126;2024-02-04T02:49:26;2.95;;;2.75;;
12908;SDS011;6522;49.622;6.126;2024-02-04T02:52:12;2.65;;;2.45;;
12908;SDS011;6522;49.622;6.126;2024-02-04T02:54:59;4.03;;;2.42;;
12908;SDS011;6522;49.622;6.126;2024-02-04T02:57:47;2.53;;;2.30;;
12908;SDS011;6522;49.622;6.126;2024-02-04T03:00:34;4.20;;;3.37;;
12908;SDS011;6522;49.622;6.126;2024-02-04T03:03:21;3.50;;;3.20;;
12908;SDS011;6522;49.622;6.126;2024-02-04T03:06:08;4.00;;;3.20;;
12908;SDS011;6522;49.622;6.126;2024-02-04T03:08:54;2.65;;;2.42;;
12908;SDS011;6522;49.622;6.126;2024-02-04T03:11:41;3.20;;;2.62;;
12908;SDS011;6522;49.622;6.126;2024-02-04T03:14:28;2.95;;;2.60;;
12908;SDS011;6522;49.622;6.126;2024-02-04T03:17:14;3.05;;;2.80;;
12908;SDS011;6522;49.622;6.126;2024-02-04T03:20:01;2.95;;;2.75;;
12908;SDS011;6522;49.622;6.126;2024-02-04T03:22:48;2.87;;;2.67;;
12908;SDS011;6522;49.622;6.126;2024-02-04T03:25:35;3.75;;;3.42;;
12908;SDS011;6522;49.622;6.126;2024-02-04T03:28:22;2.95;;;2.50;;
12908;SDS011;6522;49.622;6.126;2024-02-04T03:31:09;3.85;;;2.60;;
12908;SDS011;6522;49.622;6.126;2024-02-04T03:33:56;3.60;;;3.30;;
12908;SDS011;6522;49.622;6.126;2024-02-04T03:36:43;3.47;;;3.20;;
12908;SDS011;6522;49.622;6.126;2024-02-04T03:39:30;4.40;;;3.40;;
12908;SDS011;6522;49.622;6.126;2024-02-04T03:42:17;3.50;;;3.20;;
12908;SDS011;6522;49.622;6.126;2024-02-04T03:45:04;3.78;;;3.42;;
12908;SDS011;6522;49.622;6.126;2024-02-04T03:47:50;3.85;;;3.55;;
12908;SDS011;6522;49.622;6.126;2024-02-04T03:50:36;5.37;;;4.00;;
12908;SDS011;6522;49.622;6.126;2024-02-04T03:53:23;3.60;;;3.40;;
12908;SDS011;6522;49.622;6.126;2024-02-04T03:56:10;3.70;;;3.40;;
12908;SDS011;6522;49.622;6.126;2024-02-04T03:58:57;4.93;;;4.00;;
12908;SDS011;6522;49.622;6.126;2024-02-04T04:01:50;4.55;;;4.15;;
12908;SDS011;6522;49.622;6.126;2024-02-04T04:04:39;4.43;;;4.00;;
12908;SDS011;6522;49.622;6.126;2024-02-04T04:07:23;3.72;;;3.42;;
12908;SDS011;6522;49.622;6.126;2024-02-04T04:10:10;5.30;;;4.40;;
12908;SDS011;6522;49.622;6.126;2024-02-04T04:12:56;3.92;;;3.62;;
12908;SDS011;6522;49.622;6.126;2024-02-04T04:15:43;4.12;;;3.70;;
12908;SDS011;6522;49.622;6.126;2024-02-04T04:18:30;4.07;;;3.67;;
12908;SDS011;6522;49.622;6.126;2024-02-04T04:21:16;4.75;;;4.35;;
12908;SDS011;6522;49.622;6.126;2024-02-04T04:24:03;4.10;;;3.72;;
12908;SDS011;6522;49.622;6.126;2024-02-04T04:26:50;3.80;;;3.50;;
12908;SDS011;6522;49.622;6.126;2024-02-04T04:29:37;4.62;;;4.22;;
12908;SDS011;6522;49.622;6.126;2024-02-04T04:32:24;4.55;;;4.15;;
12908;SDS011;6522;49.622;6.126;2024-02-04T04:35:11;5.32;;;4.82;;
12908;SDS011;6522;49.622;6.126;2024-02-04T04:37:57;4.68;;;4.28;;
12908;SDS011;6522;49.622;6.126;2024-02-04T04:40:44;4.47;;;3.83;;
12908;SDS011;6522;49.622;6.126;2024-02-04T04:43:31;3.92;;;3.20;;
12908;SDS011;6522;49.622;6.126;2024-02-04T04:46:18;3.65;;;3.35;;
12908;SDS011;6522;49.622;6.126;2024-02-04T04:49:05;6.20;;;4.07;;
12908;SDS011;6522;49.622;6.126;2024-02-04T04:51:51;4.05;;;3.75;;
12908;SDS011;6522;49.622;6.126;2024-02-04T04:54:38;4.60;;;4.20;;
12908;SDS011;6522;49.622;6.126;2024-02-04T04:57:25;4.20;;;3.90;;
12908;SDS011;6522;49.622;6.126;2024-02-04T05:00:12;4.90;;;4.50;;
12908;SDS011;6522;49.622;6.126;2024-02-04T05:02:59;4.65;;;3.70;;
12908;SDS011;6522;49.622;6.126;2024-02-04T05:05:46;5.45;;;4.35;;
12908;SDS011;6522;49.622;6.126;2024-02-04T05:08:32;4.65;;;4.25;;
12908;SDS011;6522;49.622;6.126;2024-02-04T05:11:19;4.82;;;4.10;;
12908;SDS011;6522;49.622;6.126;2024-02-04T05:14:06;5.40;;;3.90;;
12908;SDS011;6522;49.622;6.126;2024-02-04T05:16:53;4.85;;;4.47;;
12908;SDS011;6522;49.622;6.126;2024-02-04T05:19:43;4.95;;;4.55;;
12908;SDS011;6522;49.622;6.126;2024-02-04T05:22:29;5.07;;;4.57;;
12908;SDS011;6522;49.622;6.126;2024-02-04T05:25:16;5.37;;;4.35;;
12908;SDS011;6522;49.622;6.126;2024-02-04T05:28:03;4.53;;;4.15;;
12908;SDS011;6522;49.622;6.126;2024-02-04T05:30:50;6.87;;;4.90;;
12908;SDS011;6522;49.622;6.126;2024-02-04T05:33:36;4.32;;;3.92;;
12908;SDS011;6522;49.622;6.126;2024-02-04T05:36:23;4.53;;;4.12;;
12908;SDS011;6522;49.622;6.126;2024-02-04T05:39:10;4.97;;;4.20;;
12908;SDS011;6522;49.622;6.126;2024-02-04T05:41:57;5.12;;;4.28;;
12908;SDS011;6522;49.622;6.126;2024-02-04T05:44:44;5.90;;;5.32;;
12908;SDS011;6522;49.622;6.126;2024-02-04T05:47:31;6.30;;;4.68;;
12908;SDS011;6522;49.622;6.126;2024-02-04T05:50:17;4.87;;;4.40;;
12908;SDS011;6522;49.622;6.126;2024-02-04T05:53:04;5.40;;;4.55;;
12908;SDS011;6522;49.622;6.126;2024-02-04T05:55:51;6.60;;;4.97;;
12908;SDS011;6522;49.622;6.126;2024-02-04T05:58:37;5.30;;;4.80;;
12908;SDS011;6522;49.622;6.126;2024-02-04T06:01:24;6.93;;;4.80;;
12908;SDS011;6522;49.622;6.126;2024-02-04T06:04:11;5.12;;;4.62;;
12908;SDS011;6522;49.622;6.126;2024-02-04T06:06:58;5.80;;;5.20;;
12908;SDS011;6522;49.622;6.126;2024-02-04T06:09:45;6.97;;;4.90;;
12908;SDS011;6522;49.622;6.126;2024-02-04T06:12:31;6.78;;;6.18;;
12908;SDS011;6522;49.622;6.126;2024-02-04T06:15:18;6.70;;;4.95;;
12908;SDS011;6522;49.622;6.126;2024-02-04T06:18:04;6.57;;;5.97;;
12908;SDS011;6522;49.622;6.126;2024-02-04T06:20:51;6.10;;;5.50;;
12908;SDS011;6522;49.622;6.126;2024-02-04T06:23:38;9.77;;;5.55;;
12908;SDS011;6522;49.622;6.126;2024-02-04T06:26:25;5.93;;;5.10;;
12908;SDS011;6522;49.622;6.126;2024-02-04T06:29:12;5.87;;;5.07;;
12908;SDS011;6522;49.622;6.126;2024-02-04T06:31:59;7.00;;;5.20;;
12908;SDS011;6522;49.622;6.126;2024-02-04T06:34:46;6.07;;;5.18;;
12908;SDS011;6522;49.622;6.126;2024-02-04T06:37:33;5.15;;;4.75;;
12908;SDS011;6522;49.622;6.126;2024-02-04T06:40:20;5.07;;;4.65;;
12908;SDS011;6522;49.622;6.126;2024-02-04T06:43:07;5.50;;;4.60;;
12908;SDS011;6522;49.622;6.126;2024-02-04T06:45:53;5.03;;;4.40;;
12908;SDS011;6522;49.622;6.126;2024-02-04T06:48:40;6.22;;;4.50;;
12908;SDS011;6522;49.622;6.126;2024-02-04T06:51:27;7.22;;;5.62;;
12908;SDS011;6522;49.622;6.126;2024-02-04T06:54:14;5.40;;;4.60;;
12908;SDS011;6522;49.622;6.126;2024-02-04T06:57:00;6.47;;;4.53;;
12908;SDS011;6522;49.622;6.126;2024-02-04T06:59:47;5.45;;;4.30;;
12908;SDS011;6522;49.622;6.126;2024-02-04T07:02:34;6.43;;;4.07;;
12908;SDS011;6522;49.622;6.126;2024-02-04T07:05:21;5.43;;;4.22;;
12908;SDS011;6522;49.622;6.126;2024-02-04T07:08:07;5.75;;;4.32;;
12908;SDS011;6522;49.622;6.126;2024-02-04T07:10:54;4.72;;;4.18;;
12908;SDS011;6522;49.622;6.126;2024-02-04T07:13:41;4.22;;;3.90;;
12908;SDS011;6522;49.622;6.126;2024-02-04T07:16:28;5.93;;;3.60;;
12908;SDS011;6522;49.622;6.126;2024-02-04T07:19:14;4.68;;;4.18;;
12908;SDS011;6522;49.622;6.126;2024-02-04T07:22:01;4.10;;;3.75;;
12908;SDS011;6522;49.622;6.126;2024-02-04T07:24:48;4.75;;;4.05;;
12908;SDS011;6522;49.622;6.126;2024-02-04T07:27:35;6.20;;;4.10;;
12908;SDS011;6522;49.622;6.126;2024-02-04T07:30:22;6.10;;;4.97;;
12908;SDS011;6522;49.622;6.126;2024-02-04T07:33:08;4.95;;;4.00;;
12908;SDS011;6522;49.622;6.126;2024-02-04T07:35:55;4.22;;;3.83;;
12908;SDS011;6522;49.622;6.126;2024-02-04T07:38:42;5.00;;;3.20;;
12908;SDS011;6522;49.622;6.126;2024-02-04T07:41:29;4.87;;;4.25;;
12908;SDS011;6522;49.622;6.126;2024-02-04T07:44:16;5.97;;;5.35;;
12908;SDS011;6522;49.622;6.126;2024-02-04T07:47:04;4.87;;;3.90;;
12908;SDS011;6522;49.622;6.126;2024-02-04T07:49:51;4.50;;;4.12;;
12908;SDS011;6522;49.622;6.126;2024-02-04T07:52:38;4.57;;;4.18;;
12908;SDS011;6522;49.622;6.126;2024-02-04T07:55:25;3.95;;;3.55;;
12908;SDS011;6522;49.622;6.126;2024-02-04T07:58:12;5.82;;;4.05;;
12908;SDS011;6522;49.622;6.126;2024-02-04T08:00:59;4.57;;;4.15;;
12908;SDS011;6522;49.622;6.126;2024-02-04T08:03:46;4.50;;;3.92;;
12908;SDS011;6522;49.622;6.126;2024-02-04T08:06:32;5.82;;;5.28;;
12908;SDS011;6522;49.622;6.126;2024-02-04T08:09:20;5.35;;;4.85;;
12908;SDS011;6522;49.622;6.126;2024-02-04T08:12:06;4.85;;;4.45;;
12908;SDS011;6522;49.622;6.126;2024-02-04T08:14:53;6.12;;;5.50;;
12908;SDS011;6522;49.622;6.126;2024-02-04T08:17:40;5.45;;;4.95;;
12908;SDS011;6522;49.622;6.126;2024-02-04T08:20:27;5.60;;;5.10;;
12908;SDS011;6522;49.622;6.126;2024-02-04T08:23:14;4.95;;;4.20;;
12908;SDS011;6522;49.622;6.126;2024-02-04T08:26:01;5.20;;;4.70;;
12908;SDS011;6522;49.622;6.126;2024-02-04T08:28:48;8.25;;;5.95;;
12908;SDS011;6522;49.622;6.126;2024-02-04T08:31:35;6.93;;;6.30;;
12908;SDS011;6522;49.622;6.126;2024-02-04T08:34:21;6.55;;;5.95;;
12908;SDS011;6522;49.622;6.126;2024-02-04T08:37:08;6.57;;;6.00;;
12908;SDS011;6522;49.622;6.126;2024-02-04T08:39:55;6.87;;;6.37;;
12908;SDS011;6522;49.622;6.126;2024-02-04T08:42:42;5.90;;;5.50;;
12908;SDS011;6522;49.622;6.126;2024-02-04T08:45:29;5.82;;;5.43;;
12908;SDS011;6522;49.622;6.126;2024-02-04T08:48:15;6.20;;;5.80;;
12908;SDS011;6522;49.622;6.126;2024-02-04T08:51:02;6.65;;;6.15;;
12908;SDS011;6522;49.622;6.126;2024-02-04T08:53:49;5.18;;;4.85;;
12908;SDS011;6522;49.622;6.126;2024-02-04T08:56:36;6.80;;;6.30;;
12908;SDS011;6522;49.622;6.126;2024-02-04T08:59:22;6.07;;;5.65;;
12908;SDS011;6522;49.622;6.126;2024-02-04T09:02:09;7.03;;;6.40;;
12908;SDS011;6522;49.622;6.126;2024-02-04T09:04:56;5.68;;;5.28;;
12908;SDS011;6522;49.622;6.126;2024-02-04T09:07:42;5.32;;;4.90;;
12908;SDS011;6522;49.622;6.126;2024-02-04T09:10:29;5.68;;;5.30;;
12908;SDS011;6522;49.622;6.126;2024-02-04T09:13:16;5.25;;;4.85;;
12908;SDS011;6522;49.622;6.126;2024-02-04T09:16:03;5.62;;;5.18;;
12908;SDS011;6522;49.622;6.126;2024-02-04T09:18:49;5.60;;;5.20;;
12908;SDS011;6522;49.622;6.126;2024-02-04T09:21:36;5.05;;;4.60;;
12908;SDS011;6522;49.622;6.126;2024-02-04T09:24:23;3.70;;;3.40;;
12908;SDS011;6522;49.622;6.126;2024-02-04T09:27:09;5.43;;;5.03;;
12908;SDS011;6522;49.622;6.126;2024-02-04T09:29:56;5.50;;;5.10;;
12908;SDS011;6522;49.622;6.126;2024-02-04T09:32:42;4.80;;;4.50;;
12908;SDS011;6522;49.622;6.126;2024-02-04T09:35:29;4.72;;;4.43;;
12908;SDS011;6522;49.622;6.126;2024-02-04T09:38:16;5.70;;;4.30;;
12908;SDS011;6522;49.622;6.126;2024-02-04T09:41:03;4.50;;;4.20;;
12908;SDS011;6522;49.622;6.126;2024-02-04T09:43:51;4.57;;;4.18;;
12908;SDS011;6522;49.622;6.126;2024-02-04T09:46:37;4.70;;;4.30;;
12908;SDS011;6522;49.622;6.126;2024-02-04T09:49:24;3.85;;;2.92;;
12908;SDS011;6522;49.622;6.126;2024-02-04T09:52:11;4.35;;;4.05;;
12908;SDS011;6522;49.622;6.126;2024-02-04T09:55:01;4.82;;;4.43;;
12908;SDS011;6522;49.622;6.126;2024-02-04T09:57:47;4.68;;;4.28;;
12908;SDS011;6522;49.622;6.126;2024-02-04T10:00:34;4.28;;;3.97;;
12908;SDS011;6522;49.622;6.126;2024-02-04T10:03:21;3.72;;;3.42;;
12908;SDS011;6522;49.622;6.126;2024-02-04T10:06:07;3.83;;;3.62;;
12908;SDS011;6522;49.622;6.126;2024-02-04T10:08:55;3.28;;;2.85;;
12908;SDS011;6522;49.622;6.126;2024-02-04T10:11:41;2.60;;;2.40;;
12908;SDS011;6522;49.622;6.126;2024-02-04T10:14:28;3.67;;;3.47;;
12908;SDS011;6522;49.622;6.126;2024-02-04T10:17:15;4.18;;;3.87;;
12908;SDS011;6522;49.622;6.126;2024-02-04T10:20:02;5.80;;;3.70;;
12908;SDS011;6522;49.622;6.126;2024-02-04T10:22:49;3.47;;;3.28;;
12908;SDS011;6522;49.622;6.126;2024-02-04T10:25:35;4.12;;;3.83;;
12908;SDS011;6522;49.622;6.126;2024-02-04T10:28:22;3.55;;;3.20;;
12908;SDS011;6522;49.622;6.126;2024-02-04T10:31:09;3.20;;;3.00;;
12908;SDS011;6522;49.622;6.126;2024-02-04T10:33:59;3.15;;;2.95;;
12908;SDS011;6522;49.622;6.126;2024-02-04T10:36:45;3.08;;;2.87;;
12908;SDS011;6522;49.622;6.126;2024-02-04T10:39:31;3.30;;;3.10;;
12908;SDS011;6522;49.622;6.126;2024-02-04T10:42:20;3.22;;;3.03;;
12908;SDS011;6522;49.622;6.126;2024-02-04T10:45:06;2.87;;;2.67;;
12908;SDS011;6522;49.622;6.126;2024-02-04T10:47:55;2.47;;;2.30;;
12908;SDS011;6522;49.622;6.126;2024-02-04T10:50:39;2.30;;;2.20;;
12908;SDS011;6522;49.622;6.126;2024-02-04T10:53:26;2.25;;;2.05;;
12908;SDS011;6522;49.622;6.126;2024-02-04T10:56:18;2.55;;;2.35;;
12908;SDS011;6522;49.622;6.126;2024-02-04T10:58:59;1.40;;;1.30;;
12908;SDS011;6522;49.622;6.126;2024-02-04T11:01:46;2.10;;;2.00;;
12908;SDS011;6522;49.622;6.126;2024-02-04T11:04:36;2.25;;;2.15;;
12908;SDS011;6522;49.622;6.126;2024-02-04T11:07:23;1.73;;;1.62;;
12908;SDS011;6522;49.622;6.126;2024-02-04T11:10:10;1.80;;;1.70;;
12908;SDS011;6522;49.622;6.126;2024-02-04T11:12:57;1.75;;;1.65;;
12908;SDS011;6522;49.622;6.126;2024-02-04T11:15:43;1.70;;;1.60;;
12908;SDS011;6522;49.622;6.126;2024-02-04T11:18:35;1.80;;;1.70;;
12908;SDS011;6522;49.622;6.126;2024-02-04T11:21:32;2.17;;;1.65;;
12908;SDS011;6522;49.622;6.126;2024-02-04T11:24:21;1.80;;;1.70;;
12908;SDS011;6522;49.622;6.126;2024-02-04T11:27:03;1.92;;;1.80;;
12908;SDS011;6522;49.622;6.126;2024-02-04T11:29:50;2.00;;;1.42;;
12908;SDS011;6522;49.622;6.126;2024-02-04T11:32:36;1.20;;;0.80;;
12908;SDS011;6522;49.622;6.126;2024-02-04T11:35:23;1.83;;;1.73;;
12908;SDS011;6522;49.622;6.126;2024-02-04T11:38:10;1.75;;;1.65;;
12908;SDS011;6522;49.622;6.126;2024-02-04T11:41:00;1.60;;;1.50;;
12908;SDS011;6522;49.622;6.126;2024-02-04T11:43:46;1.50;;;1.40;;
12908;SDS011;6522;49.622;6.126;2024-02-04T11:46:33;1.70;;;1.58;;
12908;SDS011;6522;49.622;6.126;2024-02-04T11:49:23;1.40;;;1.30;;
12908;SDS011;6522;49.622;6.126;2024-02-04T11:52:07;1.58;;;1.48;;
12908;SDS011;6522;49.622;6.126;2024-02-04T11:54:54;2.62;;;1.58;;
12908;SDS011;6522;49.622;6.126;2024-02-04T11:57:40;1.55;;;1.45;;
12908;SDS011;6522;49.622;6.126;2024-02-04T12:00:27;2.47;;;1.77;;
12908;SDS011;6522;49.622;6.126;2024-02-04T12:03:14;1.40;;;0.80;;
12908;SDS011;6522;49.622;6.126;2024-02-04T12:06:00;1.25;;;0.85;;
12908;SDS011;6522;49.622;6.126;2024-02-04T12:08:47;1.67;;;1.58;;
12908;SDS011;6522;49.622;6.126;2024-02-04T12:11:35;1.80;;;1.70;;
12908;SDS011;6522;49.622;6.126;2024-02-04T12:14:21;4.28;;;1.70;;
12908;SDS011;6522;49.622;6.126;2024-02-04T12:17:11;2.10;;;0.80;;
12908;SDS011;6522;49.622;6.126;2024-02-04T12:19:55;1.80;;;1.70;;
12908;SDS011;6522;49.622;6.126;2024-02-04T12:22:42;1.60;;;1.50;;
12908;SDS011;6522;49.622;6.126;2024-02-04T12:25:29;1.55;;;1.45;;
12908;SDS011;6522;49.622;6.126;2024-02-04T12:28:15;1.60;;;1.50;;
12908;SDS011;6522;49.622;6.126;2024-02-04T12:31:02;1.20;;;0.80;;
12908;SDS011;6522;49.622;6.126;2024-02-04T12:33:55;1.45;;;1.35;;
12908;SDS011;6522;49.622;6.126;2024-02-04T12:36:38;1.60;;;1.50;;
12908;SDS011;6522;49.622;6.126;2024-02-04T12:39:25;1.60;;;1.50;;
12908;SDS011;6522;49.622;6.126;2024-02-04T12:42:15;1.67;;;1.58;;
12908;SDS011;6522;49.622;6.126;2024-02-04T12:45:01;1.52;;;1.42;;
12908;SDS011;6522;49.622;6.126;2024-02-04T12:47:54;1.50;;;1.40;;
12908;SDS011;6522;49.622;6.126;2024-02-04T12:50:41;1.60;;;1.50;;
12908;SDS011;6522;49.622;6.126;2024-02-04T12:53:27;1.40;;;0.80;;
12908;SDS011;6522;49.622;6.126;2024-02-04T12:56:14;2.28;;;2.08;;
12908;SDS011;6522;49.622;6.126;2024-02-04T12:59:01;2.47;;;1.40;;
12908;SDS011;6522;49.622;6.126;2024-02-04T13:01:51;1.50;;;1.40;;
12908;SDS011;6522;49.622;6.126;2024-02-04T13:04:34;1.60;;;1.50;;
12908;SDS011;6522;49.622;6.126;2024-02-04T13:07:20;1.50;;;1.40;;
12908;SDS011;6522;49.622;6.126;2024-02-04T13:10:08;1.70;;;1.60;;
12908;SDS011;6522;49.622;6.126;2024-02-04T13:12:58;1.98;;;1.70;;
12908;SDS011;6522;49.622;6.126;2024-02-04T13:15:45;1.70;;;1.60;;
12908;SDS011;6522;49.622;6.126;2024-02-04T13:18:31;2.12;;;1.50;;
12908;SDS011;6522;49.622;6.126;2024-02-04T13:21:18;2.08;;;1.67;;
12908;SDS011;6522;49.622;6.126;2024-02-04T13:24:05;1.52;;;1.40;;
12908;SDS011;6522;49.622;6.126;2024-02-04T13:26:52;1.20;;;1.10;;
12908;SDS011;6522;49.622;6.126;2024-02-04T13:29:39;1.50;;;1.40;;
12908;SDS011;6522;49.622;6.126;2024-02-04T13:32:25;1.42;;;1.20;;
12908;SDS011;6522;49.622;6.126;2024-02-04T13:35:12;1.50;;;1.40;;
12908;SDS011;6522;49.622;6.126;2024-02-04T13:37:59;1.45;;;1.20;;
12908;SDS011;6522;49.622;6.126;2024-02-04T13:40:45;1.00;;;0.70;;
12908;SDS011;6522;49.622;6.126;2024-02-04T13:43:32;1.60;;;1.50;;
12908;SDS011;6522;49.622;6.126;2024-02-04T13:46:19;1.50;;;1.40;;
12908;SDS011;6522;49.622;6.126;2024-02-04T13:49:06;1.50;;;1.30;;
12908;SDS011;6522;49.622;6.126;2024-02-04T13:51:52;1.40;;;1.30;;
12908;SDS011;6522;49.622;6.126;2024-02-04T13:54:39;1.50;;;1.30;;
12908;SDS011;6522;49.622;6.126;2024-02-04T13:57:26;1.92;;;1.73;;
12908;SDS011;6522;49.622;6.126;2024-02-04T14:00:13;1.10;;;0.68;;
12908;SDS011;6522;49.622;6.126;2024-02-04T14:03:00;1.73;;;1.58;;
12908;SDS011;6522;49.622;6.126;2024-02-04T14:05:46;1.30;;;1.20;;
12908;SDS011;6522;49.622;6.126;2024-02-04T14:08:33;1.40;;;1.30;;
12908;SDS011;6522;49.622;6.126;2024-02-04T14:11:20;2.08;;;1.23;;
12908;SDS011;6522;49.622;6.126;2024-02-04T14:14:07;1.60;;;1.50;;
12908;SDS011;6522;49.622;6.126;2024-02-04T14:16:53;1.27;;;1.15;;
12908;SDS011;6522;49.622;6.126;2024-02-04T14:19:40;1.50;;;1.40;;
12908;SDS011;6522;49.622;6.126;2024-02-04T14:22:27;1.55;;;1.40;;
12908;SDS011;6522;49.622;6.126;2024-02-04T14:25:13;2.15;;;1.55;;
12908;SDS011;6522;49.622;6.126;2024-02-04T14:28:00;1.70;;;1.60;;
12908;SDS011;6522;49.622;6.126;2024-02-04T14:30:47;1.80;;;1.70;;
12908;SDS011;6522;49.622;6.126;2024-02-04T14:33:34;1.45;;;1.30;;
12908;SDS011;6522;49.622;6.126;2024-02-04T14:36:20;1.77;;;1.67;;
12908;SDS011;6522;49.622;6.126;2024-02-04T14:39:08;1.73;;;1.62;;
12908;SDS011;6522;49.622;6.126;2024-02-04T14:41:54;1.30;;;0.90;;
12908;SDS011;6522;49.622;6.126;2024-02-04T14:44:41;2.30;;;2.20;;
12908;SDS011;6522;49.622;6.126;2024-02-04T14:47:28;2.33;;;2.10;;
12908;SDS011;6522;49.622;6.126;2024-02-04T14:50:15;1.33;;;1.23;;
12908;SDS011;6522;49.622;6.126;2024-02-04T14:53:01;1.42;;;1.30;;
12908;SDS011;6522;49.622;6.126;2024-02-04T14:55:48;1.65;;;1.55;;
12908;SDS011;6522;49.622;6.126;2024-02-04T14:58:36;1.95;;;1.75;;
12908;SDS011;6522;49.622;6.126;2024-02-04T15:01:22;1.83;;;1.73;;
12908;SDS011;6522;49.622;6.126;2024-02-04T15:04:09;1.73;;;1.62;;
12908;SDS011;6522;49.622;6.126;2024-02-04T15:06:55;1.65;;;1.55;;
12908;SDS011;6522;49.622;6.126;2024-02-04T15:09:42;1.70;;;1.60;;
12908;SDS011;6522;49.622;6.126;2024-02-04T15:12:29;2.08;;;1.90;;
12908;SDS011;6522;49.622;6.126;2024-02-04T15:15:16;2.08;;;1.87;;
12908;SDS011;6522;49.622;6.126;2024-02-04T15:18:03;2.42;;;2.22;;
12908;SDS011;6522;49.622;6.126;2024-02-04T15:20:50;1.90;;;1.80;;
12908;SDS011;6522;49.622;6.126;2024-02-04T15:23:37;1.70;;;1.60;;
12908;SDS011;6522;49.622;6.126;2024-02-04T15:26:24;2.00;;;1.70;;
12908;SDS011;6522;49.622;6.126;2024-02-04T15:29:11;2.50;;;2.30;;
12908;SDS011;6522;49.622;6.126;2024-02-04T15:31:58;2.72;;;1.73;;
12908;SDS011;6522;49.622;6.126;2024-02-04T15:34:45;2.33;;;2.00;;
12908;SDS011;6522;49.622;6.126;2024-02-04T15:37:32;2.85;;;2.55;;
12908;SDS011;6522;49.622;6.126;2024-02-04T15:40:18;2.78;;;2.53;;
12908;SDS011;6522;49.622;6.126;2024-02-04T15:43:05;2.78;;;2.55;;
12908;SDS011;6522;49.622;6.126;2024-02-04T15:45:52;4.75;;;3.37;;
12908;SDS011;6522;49.622;6.126;2024-02-04T15:48:39;3.62;;;3.33;;
12908;SDS011;6522;49.622;6.126;2024-02-04T15:51:25;4.85;;;3.75;;
12908;SDS011;6522;49.622;6.126;2024-02-04T15:54:12;5.00;;;3.00;;
12908;SDS011;6522;49.622;6.126;2024-02-04T15:57:04;3.37;;;3.08;;
12908;SDS011;6522;49.622;6.126;2024-02-04T15:59:50;5.60;;;3.70;;
12908;SDS011;6522;49.622;6.126;2024-02-04T16:02:37;3.33;;;3.03;;
12908;SDS011;6522;49.622;6.126;2024-02-04T16:05:24;3.10;;;2.40;;
12908;SDS011;6522;49.622;6.126;2024-02-04T16:08:11;3.80;;;2.58;;
12908;SDS011;6522;49.622;6.126;2024-02-04T16:10:58;3.40;;;2.33;;
12908;SDS011;6522;49.622;6.126;2024-02-04T16:13:44;4.10;;;3.40;;
12908;SDS011;6522;49.622;6.126;2024-02-04T16:16:35;2.62;;;2.30;;
12908;SDS011;6522;49.622;6.126;2024-02-04T16:19:20;3.20;;;2.90;;
12908;SDS011;6522;49.622;6.126;2024-02-04T16:22:07;3.78;;;3.00;;
12908;SDS011;6522;49.622;6.126;2024-02-04T16:24:54;2.97;;;2.70;;
12908;SDS011;6522;49.622;6.126;2024-02-04T16:27:41;3.95;;;3.40;;
12908;SDS011;6522;49.622;6.126;2024-02-04T16:30:28;4.40;;;2.65;;
12908;SDS011;6522;49.622;6.126;2024-02-04T16:33:15;5.37;;;3.20;;
12908;SDS011;6522;49.622;6.126;2024-02-04T16:36:01;4.32;;;3.92;;
12908;SDS011;6522;49.622;6.126;2024-02-04T16:38:48;3.80;;;3.50;;
12908;SDS011;6522;49.622;6.126;2024-02-04T16:41:35;4.82;;;4.32;;
12908;SDS011;6522;49.622;6.126;2024-02-04T16:44:21;5.20;;;4.65;;
12908;SDS011;6522;49.622;6.126;2024-02-04T16:47:08;4.40;;;4.00;;
12908;SDS011;6522;49.622;6.126;2024-02-04T16:49:55;4.07;;;3.67;;
12908;SDS011;6522;49.622;6.126;2024-02-04T16:52:42;3.85;;;3.55;;
12908;SDS011;6522;49.622;6.126;2024-02-04T16:55:29;4.50;;;4.10;;
12908;SDS011;6522;49.622;6.126;2024-02-04T16:58:15;4.35;;;3.97;;
12908;SDS011;6522;49.622;6.126;2024-02-04T17:01:02;4.03;;;3.67;;
12908;SDS011;6522;49.622;6.126;2024-02-04T17:03:49;4.55;;;4.15;;
12908;SDS011;6522;49.622;6.126;2024-02-04T17:06:36;4.55;;;4.15;;
12908;SDS011;6522;49.622;6.126;2024-02-04T17:09:22;4.55;;;4.15;;